Time;durP1;ratioP1;P1;durP2;ratioP2;P2;SDS_P1;SDS_P2;PMS_P1;PMS_P2;Temp;Humidity;BMP_temperature;BMP_pressure;BME280_temperature;BME280_humidity;BME280_pressure;Samples;Min_cycle;Max_cycle;Signal;HPM_P1;HPM_P2
2023/12/20 00:01:50;;;;;;;121.10;73.13;;;6.10;99.90;;;;;;4933057;29;20039;-49
2023/12/20 00:04:16;;;;;;;108.32;71.07;;;6.00;99.90;;;;;;4952457;29;20182;-49
2023/12/20 00:06:42;;;;;;;101.07;66.78;;;6.00;99.90;;;;;;4952562;29;20514;-49
2023/12/20 00:09:07;;;;;;;99.45;65.57;;;6.00;99.90;;;;;;4918770;29;20032;-50
2023/12/20 00:11:33;;;;;;;96.40;68.13;;;6.00;99.90;;;;;;4952856;29;20063;-49
2023/12/20 00:13:59;;;;;;;104.82;68.15;;;6.00;99.90;;;;;;4950061;29;20063;-49
2023/12/20 00:16:25;;;;;;;107.63;75.28;;;6.00;99.90;;;;;;4919112;29;20028;-50
2023/12/20 00:18:50;;;;;;;99.07;70.07;;;6.00;99.90;;;;;;4953100;29;20370;-51
2023/12/20 00:21:16;;;;;;;129.10;87.85;;;5.90;99.90;;;;;;4953034;29;20040;-49
2023/12/20 00:23:42;;;;;;;268.65;133.85;;;5.90;99.90;;;;;;4952958;29;20154;-49
2023/12/20 00:26:07;;;;;;;195.10;124.38;;;6.00;99.90;;;;;;4952727;29;20047;-50
2023/12/20 00:28:33;;;;;;;163.80;113.75;;;5.90;99.90;;;;;;4943276;29;20396;-50
2023/12/20 00:30:59;;;;;;;106.97;75.28;;;5.90;99.90;;;;;;4885238;29;20396;-49
2023/12/20 00:33:25;;;;;;;121.65;90.07;;;6.00;99.90;;;;;;4934316;29;20404;-49
2023/12/20 00:35:51;;;;;;;95.63;64.78;;;6.00;99.90;;;;;;4940884;29;20035;-51
2023/12/20 00:38:16;;;;;;;202.93;136.15;;;6.00;99.90;;;;;;4918302;29;20106;-51
2023/12/20 00:40:42;;;;;;;167.00;113.30;;;5.90;99.90;;;;;;4952496;29;20483;-51
2023/12/20 00:43:08;;;;;;;125.82;90.00;;;5.80;99.90;;;;;;4952780;29;20023;-49
2023/12/20 00:45:34;;;;;;;116.70;84.55;;;5.80;99.90;;;;;;4952739;29;20058;-50
2023/12/20 00:47:59;;;;;;;110.95;80.07;;;5.80;99.90;;;;;;4902951;29;20042;-49
2023/12/20 00:50:25;;;;;;;103.88;74.93;;;5.70;99.90;;;;;;4920161;29;20071;-50
2023/12/20 00:52:51;;;;;;;114.03;73.10;;;5.30;99.90;;;;;;4956462;29;20066;-51
2023/12/20 00:55:17;;;;;;;135.57;82.55;;;5.40;99.90;;;;;;4956671;29;20090;-49
2023/12/20 00:57:42;;;;;;;167.70;86.05;;;5.60;99.90;;;;;;4956736;29;20035;-48
2023/12/20 01:00:13;;;;;;;233.00;97.72;;;5.30;99.90;;;;;;4956501;29;20396;-50
2023/12/20 01:02:39;;;;;;;167.00;81.90;;;4.80;99.90;;;;;;4956836;29;20118;-50
2023/12/20 01:05:05;;;;;;;208.63;81.38;;;4.40;99.90;;;;;;4939327;29;20107;-50
2023/12/20 01:07:30;;;;;;;378.58;78.43;;;4.40;99.90;;;;;;4907193;29;20031;-49
2023/12/20 01:09:56;;;;;;;312.00;86.10;;;;;;;;;;4956670;29;20054;-51
2023/12/20 01:12:23;;;;;;;183.20;75.78;;;;;;;;;;4956466;29;20031;-49
2023/12/20 01:14:49;;;;;;;202.25;71.00;;;;;;;;;;4954384;29;20114;-49
2023/12/20 01:17:15;;;;;;;203.82;75.90;;;;;;;;;;4954288;29;20550;-51
2023/12/20 01:19:42;;;;;;;270.40;86.82;;;;;;;;;;4956370;29;20042;-50
2023/12/20 01:22:08;;;;;;;326.90;80.60;;;;;;;;;;4952408;29;20027;-49
2023/12/20 01:24:34;;;;;;;280.50;91.95;;;;;;;;;;4937845;29;20567;-49
2023/12/20 01:27:00;;;;;;;377.80;86.45;;;;;;;;;;4937484;29;20020;-50
2023/12/20 01:29:26;;;;;;;200.88;76.55;;;3.60;99.90;;;;;;4888249;29;20040;-49
2023/12/20 01:31:51;;;;;;;120.80;73.50;;;3.80;99.90;;;;;;4937486;29;20122;-51
2023/12/20 01:34:17;;;;;;;102.28;62.75;;;3.60;99.90;;;;;;4937329;29;20028;-49
2023/12/20 01:36:44;;;;;;;86.80;54.05;;;;;;;;;;4938946;29;20030;-51
2023/12/20 01:39:10;;;;;;;66.35;41.63;;;3.30;99.90;;;;;;4953650;29;20066;-50
2023/12/20 01:41:35;;;;;;;62.78;40.08;;;3.00;99.90;;;;;;4938303;29;20059;-50
2023/12/20 01:44:01;;;;;;;57.97;38.90;;;2.90;99.90;;;;;;4955761;29;20035;-51
2023/12/20 01:46:27;;;;;;;55.13;38.42;;;3.10;99.90;;;;;;4956024;29;20038;-51
2023/12/20 01:48:53;;;;;;;59.70;40.25;;;3.20;99.90;;;;;;4955725;29;20023;-49
2023/12/20 01:51:19;;;;;;;57.42;40.30;;;3.60;99.90;;;;;;4955938;29;20032;-49
2023/12/20 01:53:46;;;;;;;58.38;38.10;;;3.90;99.90;;;;;;4955780;29;20087;-50
2023/12/20 01:56:12;;;;;;;55.97;38.25;;;4.10;99.90;;;;;;4955541;29;20029;-50
2023/12/20 01:58:44;;;;;;;57.22;38.47;;;4.40;99.90;;;;;;4954620;29;20110;-51
2023/12/20 02:01:11;;;;;;;56.05;38.45;;;4.60;99.90;;;;;;4933396;29;20095;-49
2023/12/20 02:03:38;;;;;;;57.28;38.90;;;4.70;99.90;;;;;;4936203;29;20038;-50
2023/12/20 02:06:05;;;;;;;61.05;36.42;;;4.70;99.90;;;;;;4936497;29;20476;-49
2023/12/20 02:08:30;;;;;;;61.10;38.78;;;4.80;99.90;;;;;;4936109;29;20106;-50
2023/12/20 02:10:57;;;;;;;52.53;38.95;;;4.90;99.90;;;;;;4902811;29;20568;-49
2023/12/20 02:13:23;;;;;;;56.20;37.72;;;;;;;;;;4936172;29;20149;-51
2023/12/20 02:15:48;;;;;;;53.25;36.47;;;5.10;99.90;;;;;;4936452;29;20086;-49
2023/12/20 02:18:16;;;;;;;62.67;41.60;;;5.10;99.90;;;;;;4936317;29;20111;-50
2023/12/20 02:20:42;;;;;;;58.83;40.83;;;5.10;99.90;;;;;;4936010;29;20472;-50
2023/12/20 02:23:08;;;;;;;53.15;36.58;;;5.10;99.90;;;;;;4936446;29;20027;-51
2023/12/20 02:25:34;;;;;;;57.80;37.45;;;5.10;99.90;;;;;;4902100;29;20050;-50
2023/12/20 02:28:00;;;;;;;53.35;36.83;;;5.10;99.90;;;;;;4936076;29;20440;-50
2023/12/20 02:30:25;;;;;;;56.35;37.25;;;5.20;99.90;;;;;;4935822;29;20028;-50
2023/12/20 02:32:52;;;;;;;61.72;39.35;;;5.10;99.90;;;;;;4935800;29;20050;-51
2023/12/20 02:35:18;;;;;;;55.72;37.00;;;5.10;99.90;;;;;;4935830;29;20038;-51
2023/12/20 02:37:43;;;;;;;62.63;40.78;;;5.10;99.90;;;;;;4935665;29;20028;-52
2023/12/20 02:40:10;;;;;;;49.75;35.35;;;5.10;99.90;;;;;;4935895;29;20059;-51
2023/12/20 02:42:36;;;;;;;63.97;38.53;;;5.20;99.90;;;;;;4917723;29;20381;-50
2023/12/20 02:45:02;;;;;;;55.60;36.50;;;5.10;99.90;;;;;;4895273;29;20049;-50
2023/12/20 02:47:29;;;;;;;53.30;38.28;;;5.10;99.90;;;;;;4895315;29;20040;-49
2023/12/20 02:49:55;;;;;;;63.95;42.20;;;5.10;99.90;;;;;;4879832;29;20507;-51
2023/12/20 02:52:23;;;;;;;64.40;42.40;;;5.20;99.90;;;;;;4895464;29;20036;-50
2023/12/20 02:54:49;;;;;;;58.00;38.75;;;5.10;99.90;;;;;;4895303;29;20060;-50
2023/12/20 02:57:14;;;;;;;55.40;37.85;;;5.00;99.90;;;;;;4895364;29;20071;-52
2023/12/20 02:59:40;;;;;;;57.78;39.42;;;5.00;99.90;;;;;;4879320;29;20104;-50
2023/12/20 03:02:06;;;;;;;59.03;38.40;;;5.00;99.90;;;;;;4895198;29;20389;-49
2023/12/20 03:04:32;;;;;;;58.75;38.38;;;5.00;99.90;;;;;;4895005;29;20261;-50
2023/12/20 03:06:57;;;;;;;63.80;40.15;;;5.00;99.90;;;;;;4879308;29;20048;-50
2023/12/20 03:09:23;;;;;;;55.60;37.63;;;5.00;99.90;;;;;;4895012;29;20040;-50
2023/12/20 03:11:49;;;;;;;57.97;39.17;;;4.90;99.90;;;;;;4894861;29;20516;-49
2023/12/20 03:14:14;;;;;;;55.80;39.40;;;4.90;99.90;;;;;;4895128;29;20032;-51
2023/12/20 03:16:40;;;;;;;60.00;40.40;;;4.90;99.90;;;;;;4925855;29;20040;-51
2023/12/20 03:19:06;;;;;;;55.33;39.67;;;4.80;99.90;;;;;;4901555;29;20114;-49
2023/12/20 03:21:31;;;;;;;58.83;40.63;;;4.80;99.90;;;;;;4901400;29;20075;-50
2023/12/20 03:23:57;;;;;;;64.80;42.25;;;4.90;99.90;;;;;;4934906;29;20067;-51
2023/12/20 03:26:23;;;;;;;59.50;40.28;;;4.80;99.90;;;;;;4935261;29;20051;-51
2023/12/20 03:28:49;;;;;;;61.05;40.20;;;4.90;99.90;;;;;;4916888;29;20047;-51
2023/12/20 03:31:14;;;;;;;58.17;39.53;;;4.90;99.90;;;;;;4901263;29;20040;-50
2023/12/20 03:33:40;;;;;;;54.53;40.03;;;4.90;99.90;;;;;;4935052;29;20086;-50
2023/12/20 03:36:06;;;;;;;63.10;42.75;;;4.90;99.90;;;;;;4916943;29;20032;-50
2023/12/20 03:38:32;;;;;;;62.33;41.55;;;4.90;99.90;;;;;;4901200;29;20472;-51
2023/12/20 03:40:58;;;;;;;61.47;41.72;;;4.90;99.90;;;;;;4935119;29;20094;-51
2023/12/20 03:43:23;;;;;;;68.95;41.55;;;4.90;99.90;;;;;;4934974;29;20035;-51
2023/12/20 03:45:49;;;;;;;61.78;40.60;;;5.00;99.90;;;;;;4934663;29;20038;-49
2023/12/20 03:48:15;;;;;;;61.15;41.45;;;5.00;99.90;;;;;;4900911;29;20047;-49
2023/12/20 03:50:40;;;;;;;63.28;42.17;;;5.00;99.90;;;;;;4934574;29;20045;-52
2023/12/20 03:53:06;;;;;;;64.28;40.80;;;5.00;99.90;;;;;;4894308;29;20048;-49
2023/12/20 03:55:32;;;;;;;62.38;39.85;;;4.90;99.90;;;;;;4878816;29;20040;-49
2023/12/20 03:57:58;;;;;;;56.40;39.95;;;4.80;99.90;;;;;;4894240;29;20047;-51
2023/12/20 04:00:23;;;;;;;70.10;41.95;;;4.80;99.90;;;;;;4894122;29;20053;-50
2023/12/20 04:02:49;;;;;;;67.90;41.03;;;4.80;99.90;;;;;;4893946;29;20032;-50
2023/12/20 04:05:15;;;;;;;63.47;40.65;;;4.90;99.90;;;;;;4894087;29;20413;-50
2023/12/20 04:07:40;;;;;;;62.47;39.58;;;4.90;99.90;;;;;;4878377;29;20048;-50
2023/12/20 04:10:07;;;;;;;96.30;42.35;;;4.90;99.90;;;;;;4894307;29;20123;-50
2023/12/20 04:12:35;;;;;;;111.78;43.53;;;5.00;99.90;;;;;;4878386;29;20424;-51
2023/12/20 04:15:03;;;;;;;141.32;42.70;;;5.00;99.90;;;;;;4894273;29;20032;-51
2023/12/20 04:17:29;;;;;;;139.10;41.05;;;4.90;99.90;;;;;;4894165;29;20028;-52
2023/12/20 04:19:54;;;;;;;192.95;42.22;;;4.90;99.90;;;;;;4878410;29;20454;-50
2023/12/20 04:22:20;;;;;;;189.35;41.72;;;4.90;99.90;;;;;;4878548;29;20064;-50
2023/12/20 04:24:46;;;;;;;203.15;42.95;;;4.90;99.90;;;;;;4908352;29;20043;-49
2023/12/20 04:27:12;;;;;;;140.18;38.70;;;4.80;99.90;;;;;;4938187;29;20043;-49
2023/12/20 04:29:37;;;;;;;210.85;40.33;;;4.70;99.90;;;;;;4938565;29;20112;-50
2023/12/20 04:32:04;;;;;;;189.13;43.72;;;4.70;99.90;;;;;;4938006;29;20028;-50
2023/12/20 04:34:30;;;;;;;239.65;45.80;;;4.70;99.90;;;;;;4920166;29;20086;-49
2023/12/20 04:36:56;;;;;;;104.85;35.08;;;4.70;99.90;;;;;;4938168;29;20032;-50
2023/12/20 04:39:22;;;;;;;190.43;39.42;;;4.60;99.90;;;;;;4938196;29;20043;-51
2023/12/20 04:41:48;;;;;;;159.05;39.42;;;4.70;99.90;;;;;;4937833;29;20502;-51
2023/12/20 04:44:14;;;;;;;155.55;39.78;;;4.70;99.90;;;;;;4937861;29;20032;-50
2023/12/20 04:46:40;;;;;;;139.20;42.88;;;4.60;99.90;;;;;;4904065;29;20051;-50
2023/12/20 04:49:06;;;;;;;63.80;35.92;;;4.70;99.90;;;;;;4937784;29;20034;-51
2023/12/20 04:51:35;;;;;;;145.02;41.45;;;4.60;99.90;;;;;;4937619;29;20114;-49
2023/12/20 04:54:01;;;;;;;100.70;36.80;;;4.60;99.90;;;;;;4903889;29;20503;-49
2023/12/20 04:56:27;;;;;;;167.77;41.80;;;4.60;99.90;;;;;;4937691;29;20036;-51
2023/12/20 04:58:53;;;;;;;150.18;43.00;;;4.60;99.90;;;;;;4937377;29;20559;-52
2023/12/20 05:01:18;;;;;;;121.55;41.28;;;4.60;99.90;;;;;;4938060;29;20522;-49
2023/12/20 05:03:44;;;;;;;87.55;42.72;;;4.70;99.90;;;;;;4937649;29;20095;-49
2023/12/20 05:06:10;;;;;;;56.78;37.97;;;4.70;99.90;;;;;;4945890;29;20047;-49
2023/12/20 05:08:36;;;;;;;54.97;39.13;;;4.70;99.90;;;;;;4956732;29;20427;-51
2023/12/20 05:11:03;;;;;;;52.53;38.72;;;4.70;99.90;;;;;;4956410;29;20058;-50
2023/12/20 05:13:28;;;;;;;78.72;44.13;;;4.80;99.90;;;;;;4954466;29;20035;-50
2023/12/20 05:15:54;;;;;;;52.90;38.78;;;4.80;99.90;;;;;;4956132;29;20086;-49
2023/12/20 05:18:21;;;;;;;56.75;39.92;;;4.70;99.90;;;;;;4938318;29;20042;-49
2023/12/20 05:20:47;;;;;;;59.70;41.70;;;4.70;99.90;;;;;;4956119;29;20031;-50
2023/12/20 05:23:13;;;;;;;68.40;47.30;;;4.70;99.90;;;;;;4956355;29;20111;-51
2023/12/20 05:25:39;;;;;;;64.55;44.05;;;4.80;99.90;;;;;;4955887;29;20562;-49
2023/12/20 05:28:05;;;;;;;62.72;44.22;;;4.90;99.90;;;;;;4956255;29;20118;-51
2023/12/20 05:30:30;;;;;;;61.88;44.95;;;4.90;99.90;;;;;;4955651;29;20189;-50
2023/12/20 05:32:56;;;;;;;66.53;45.35;;;4.90;99.90;;;;;;4953696;29;20042;-49
2023/12/20 05:35:23;;;;;;;92.97;61.05;;;4.90;99.90;;;;;;4955475;29;20448;-50
2023/12/20 05:37:49;;;;;;;64.07;48.53;;;4.70;99.90;;;;;;4954884;28;20475;-50
2023/12/20 05:40:15;;;;;;;108.45;59.25;;;4.50;99.90;;;;;;4955903;29;20038;-50
2023/12/20 05:42:41;;;;;;;81.25;56.55;;;4.20;99.90;;;;;;4906290;29;20051;-51
2023/12/20 05:45:07;;;;;;;89.75;63.55;;;4.30;99.90;;;;;;4953739;29;20046;-51
2023/12/20 05:47:33;;;;;;;93.28;61.40;;;4.10;99.90;;;;;;4953144;29;20178;-49
2023/12/20 05:49:58;;;;;;;82.05;60.63;;;3.70;99.90;;;;;;4954395;29;20106;-49
2023/12/20 05:52:24;;;;;;;81.57;58.15;;;3.80;99.90;;;;;;4954266;29;20027;-51
2023/12/20 05:54:50;;;;;;;90.50;65.97;;;4.10;99.90;;;;;;4954701;29;20041;-50
2023/12/20 05:57:16;;;;;;;82.85;61.92;;;4.10;99.90;;;;;;4955264;29;20535;-49
2023/12/20 05:59:41;;;;;;;95.70;63.90;;;4.10;99.90;;;;;;4935797;29;20055;-51
2023/12/20 06:02:07;;;;;;;79.28;59.03;;;4.20;99.90;;;;;;4954352;29;20034;-49
2023/12/20 06:04:33;;;;;;;80.55;52.30;;;4.40;99.90;;;;;;4954167;29;20039;-49
2023/12/20 06:06:59;;;;;;;56.38;38.17;;;3.90;99.90;;;;;;4954163;29;20494;-51
2023/12/20 06:09:27;;;;;;;39.60;25.15;;;3.10;99.90;;;;;;4954773;29;20547;-48
2023/12/20 06:11:53;;;;;;;44.33;27.50;;;;;;;;;;4953995;29;20750;-49
2023/12/20 06:14:19;;;;;;;55.13;34.58;;;2.10;99.90;;;;;;4955104;29;20093;-49
2023/12/20 06:16:45;;;;;;;80.03;45.42;;;1.80;99.90;;;;;;4955136;29;20479;-50
2023/12/20 06:19:11;;;;;;;58.58;35.85;;;1.90;99.90;;;;;;4953025;29;20484;-50
2023/12/20 06:21:37;;;;;;;43.50;27.65;;;2.00;99.90;;;;;;4954553;29;20114;-51
2023/12/20 06:24:03;;;;;;;50.15;32.38;;;2.00;99.90;;;;;;4946728;29;20360;-51
2023/12/20 06:26:29;;;;;;;48.75;32.05;;;2.10;99.90;;;;;;4936123;29;20042;-49
2023/12/20 06:28:55;;;;;;;47.00;32.00;;;2.30;99.90;;;;;;4917894;29;20036;-51
2023/12/20 06:31:21;;;;;;;51.10;34.92;;;2.60;99.90;;;;;;4935713;29;20497;-49
2023/12/20 06:33:47;;;;;;;51.28;33.60;;;2.90;99.90;;;;;;4943426;29;20125;-49
2023/12/20 06:36:13;;;;;;;54.38;36.58;;;3.00;99.90;;;;;;4931305;29;20584;-49
2023/12/20 06:38:39;;;;;;;56.33;37.67;;;3.40;99.90;;;;;;4936199;29;20122;-50
2023/12/20 06:41:06;;;;;;;51.38;34.63;;;;;;;;;;4934101;29;20044;-50
2023/12/20 06:43:33;;;;;;;56.85;38.78;;;;;;;;;;4919037;29;20031;-50
2023/12/20 06:46:00;;;;;;;64.35;44.22;;;4.00;99.90;;;;;;4935747;29;20523;-50
2023/12/20 06:48:26;;;;;;;105.47;72.22;;;;;;;;;;4952130;28;20038;-50
2023/12/20 06:50:52;;;;;;;88.65;54.10;;;4.40;99.90;;;;;;4954846;29;20027;-51
2023/12/20 06:53:18;;;;;;;70.03;49.53;;;4.70;99.90;;;;;;4952668;29;20046;-50
2023/12/20 06:55:44;;;;;;;65.97;47.65;;;4.80;99.90;;;;;;4954597;29;20027;-50
2023/12/20 06:58:10;;;;;;;68.78;46.70;;;;;;;;;;4955045;29;20155;-51
2023/12/20 07:00:36;;;;;;;64.70;44.63;;;;;;;;;;4954206;29;20047;-50
2023/12/20 07:03:02;;;;;;;66.75;45.17;;;;;;;;;;4954492;29;20035;-51
2023/12/20 07:05:28;;;;;;;123.68;79.45;;;;;;;;;;4954776;29;20122;-50
2023/12/20 07:07:54;;;;;;;76.70;51.00;;;;;;;;;;4954558;29;20042;-50
2023/12/20 07:10:20;;;;;;;79.40;53.50;;;;;;;;;;4954540;29;20031;-51
2023/12/20 07:12:48;;;;;;;89.32;59.08;;;;;;;;;;4954889;29;20031;-50
2023/12/20 07:15:14;;;;;;;86.85;57.95;;;;;;;;;;4954602;29;20114;-49
2023/12/20 07:17:40;;;;;;;93.22;61.70;;;;;;;;;;4954213;29;20027;-51
2023/12/20 07:20:10;;;;;;;113.32;73.72;;;;;;;;;;4954746;29;20027;-51
2023/12/20 07:22:37;;;;;;;112.32;68.63;;;;;;;;;;4952120;29;20114;-50
2023/12/20 07:25:03;;;;;;;106.00;69.30;;;;;;;;;;4954334;29;20031;-51
2023/12/20 07:27:29;;;;;;;129.70;89.60;;;;;;;;;;4954310;29;20098;-50
2023/12/20 07:29:55;;;;;;;140.00;92.57;;;;;;;;;;4954017;29;20030;-49
2023/12/20 07:32:21;;;;;;;171.57;114.18;;;;;;;;;;4954177;29;20027;-50
2023/12/20 07:34:48;;;;;;;148.80;102.85;;;;;;;;;;4953986;29;20023;-51
2023/12/20 07:37:14;;;;;;;159.02;101.15;;;;;;;;;;4951979;29;20035;-51
2023/12/20 07:39:40;;;;;;;157.43;102.43;;;;;;;;;;4954389;29;20026;-50
2023/12/20 07:42:07;;;;;;;135.55;91.85;;;;;;;;;;4953990;29;20166;-50
2023/12/20 07:44:33;;;;;;;126.80;85.25;;;;;;;;;;4951780;29;20530;-50
2023/12/20 07:47:00;;;;;;;123.72;83.25;;;;;;;;;;4951713;29;20042;-50
2023/12/20 07:49:26;;;;;;;124.82;81.05;;;;;;;;;;4953777;29;20503;-50
2023/12/20 07:51:53;;;;;;;118.72;78.47;;;;;;;;;;4953680;29;20042;-51
2023/12/20 07:54:19;;;;;;;122.97;76.43;;;;;;;;;;4953958;29;20038;-50
2023/12/20 07:56:46;;;;;;;139.05;86.60;;;;;;;;;;4953543;29;20023;-51
2023/12/20 07:59:12;;;;;;;245.05;166.18;;;;;;;;;;4953267;29;20059;-50
2023/12/20 08:01:38;;;;;;;194.60;131.43;;;;;;;;;;4953748;29;20118;-50
2023/12/20 08:04:04;;;;;;;147.38;103.63;;;;;;;;;;4953824;29;20035;-50
2023/12/20 08:06:30;;;;;;;130.57;86.65;;;;;;;;;;4952048;29;20047;-50
2023/12/20 08:08:56;;;;;;;131.43;87.57;;;5.50;99.90;;;;;;4954116;29;20079;-50
2023/12/20 08:11:21;;;;;;;128.70;89.65;;;5.40;99.90;;;;;;4953874;29;20039;-50
2023/12/20 08:13:48;;;;;;;146.85;95.85;;;5.50;99.90;;;;;;4953759;29;20066;-50
2023/12/20 08:16:15;;;;;;;149.65;100.63;;;5.70;99.90;;;;;;4953622;29;20036;-50
2023/12/20 08:18:41;;;;;;;132.23;83.53;;;5.70;99.90;;;;;;4953907;29;20652;-50
2023/12/20 08:21:08;;;;;;;130.00;82.53;;;5.70;99.90;;;;;;4904473;29;20040;-51
2023/12/20 08:23:34;;;;;;;136.20;79.75;;;5.80;99.90;;;;;;4953609;29;20038;-50
2023/12/20 08:26:09;;;;;;;130.65;77.18;;;6.00;99.90;;;;;;4953664;29;20074;-50
2023/12/20 08:28:37;;;;;;;118.43;67.85;;;6.00;99.90;;;;;;4903263;29;20041;-51
2023/12/20 08:31:02;;;;;;;124.13;66.68;;;6.10;99.90;;;;;;4953353;29;20031;-50
2023/12/20 08:33:28;;;;;;;114.80;67.60;;;6.30;99.90;;;;;;4953491;29;20391;-51
2023/12/20 08:35:54;;;;;;;116.40;67.03;;;6.40;99.90;;;;;;4953216;29;20027;-51
2023/12/20 08:38:20;;;;;;;99.90;64.80;;;6.30;99.90;;;;;;4953975;29;20478;-50
2023/12/20 08:40:46;;;;;;;162.77;80.55;;;;;;;;;;4953361;29;20034;-50
2023/12/20 08:43:12;;;;;;;130.13;76.35;;;6.40;99.90;;;;;;4951292;29;20035;-50
2023/12/20 08:45:38;;;;;;;125.43;77.95;;;6.00;99.90;;;;;;4919063;29;20402;-50
2023/12/20 08:48:04;;;;;;;93.50;63.30;;;5.70;99.90;;;;;;4933900;29;20050;-51
2023/12/20 08:50:30;;;;;;;89.78;60.28;;;5.50;99.90;;;;;;4919068;29;20035;-51
2023/12/20 08:52:56;;;;;;;89.57;58.65;;;5.60;99.90;;;;;;4948997;29;20030;-51
2023/12/20 08:55:22;;;;;;;87.40;53.50;;;5.80;99.90;;;;;;4952878;29;20034;-51
2023/12/20 08:57:49;;;;;;;74.82;50.50;;;6.00;99.90;;;;;;4950289;29;20045;-51
2023/12/20 09:00:14;;;;;;;71.40;49.53;;;5.80;99.90;;;;;;4952475;29;20078;-51
2023/12/20 09:02:41;;;;;;;72.80;50.58;;;5.80;99.90;;;;;;4953526;29;20105;-50
2023/12/20 09:05:07;;;;;;;66.03;49.53;;;6.00;99.90;;;;;;4935111;29;20049;-50
2023/12/20 09:07:33;;;;;;;78.13;52.53;;;6.10;99.90;;;;;;4953426;29;20072;-51
2023/12/20 09:09:58;;;;;;;62.75;43.63;;;6.70;99.90;;;;;;4953241;29;20608;-51
2023/12/20 09:12:25;;;;;;;65.82;48.45;;;6.10;99.90;;;;;;4937871;29;20569;-50
2023/12/20 09:14:51;;;;;;;73.30;49.65;;;6.00;99.90;;;;;;4938603;29;20035;-51
2023/12/20 09:17:18;;;;;;;60.17;45.92;;;6.20;99.90;;;;;;4938349;29;20042;-49
2023/12/20 09:19:44;;;;;;;65.25;47.30;;;6.80;99.90;;;;;;4954394;29;20068;-50
2023/12/20 09:22:10;;;;;;;68.10;48.55;;;7.20;99.90;;;;;;4956406;29;20027;-49
2023/12/20 09:24:36;;;;;;;68.53;48.13;;;7.30;99.90;;;;;;4956420;29;20498;-48
2023/12/20 09:27:02;;;;;;;65.43;48.65;;;8.60;99.90;;;;;;4955868;29;20039;-49
2023/12/20 09:29:29;;;;;;;64.93;48.08;;;;;;;;;;4955758;29;20085;-51
2023/12/20 09:31:55;;;;;;;548.42;287.50;;;9.50;99.90;;;;;;4955758;29;20042;-50
2023/12/20 09:34:21;;;;;;;132.48;80.85;;;9.60;99.90;;;;;;4937679;29;20051;-48
2023/12/20 09:36:47;;;;;;;221.30;109.47;;;9.40;99.90;;;;;;4955989;29;20093;-47
2023/12/20 09:39:21;;;;;;;712.10;437.83;;;9.20;99.90;;;;;;4937936;29;20039;-50
2023/12/20 09:42:07;;;;;;;330.65;199.13;;;;;;;;;;4956031;29;20035;-51
2023/12/20 09:44:36;;;;;;;51.83;41.25;;;11.00;99.90;;;;;;4954021;29;20043;-51
2023/12/20 09:47:03;;;;;;;43.47;34.25;;;;;;;;;;4956051;29;20037;-49
2023/12/20 09:49:30;;;;;;;117.60;77.45;;;15.70;94.70;;;;;;4937110;29;20090;-48
2023/12/20 09:51:56;;;;;;;47.50;35.35;;;15.20;92.80;;;;;;4955897;29;20027;-48
2023/12/20 09:54:23;;;;;;;51.35;38.25;;;15.00;91.80;;;;;;4956115;29;20078;-47
2023/12/20 09:56:49;;;;;;;49.88;35.88;;;14.40;91.70;;;;;;4955800;29;20031;-48
2023/12/20 09:59:15;;;;;;;48.20;36.63;;;14.50;92.30;;;;;;4955786;29;20059;-50
2023/12/20 10:01:42;;;;;;;46.58;37.55;;;13.00;92.00;;;;;;4956024;29;20027;-50
2023/12/20 10:04:12;;;;;;;45.40;34.47;;;12.20;92.90;;;;;;4955455;29;20038;-49
2023/12/20 10:06:44;;;;;;;43.47;35.72;;;12.30;93.90;;;;;;4955670;29;20043;-49
2023/12/20 10:09:11;;;;;;;84.22;54.35;;;12.20;93.40;;;;;;4955825;29;20042;-50
2023/12/20 10:11:38;;;;;;;71.90;50.22;;;12.10;93.40;;;;;;4954541;29;20019;-47
2023/12/20 10:14:05;;;;;;;65.82;49.20;;;;;;;;;;4955517;29;20451;-48
2023/12/20 10:16:31;;;;;;;64.72;45.85;;;11.90;93.70;;;;;;4955843;29;20062;-50
2023/12/20 10:18:57;;;;;;;57.92;44.70;;;11.80;94.20;;;;;;4921180;29;20458;-48
2023/12/20 10:21:24;;;;;;;48.72;38.70;;;11.60;94.80;;;;;;4955134;29;20038;-51
2023/12/20 10:23:50;;;;;;;54.00;43.20;;;11.10;95.10;;;;;;4954454;28;20034;-50
2023/12/20 10:26:21;;;;;;;52.78;39.05;;;11.40;96.90;;;;;;4953010;29;20138;-50
2023/12/20 10:28:50;;;;;;;56.53;38.67;;;11.90;96.30;;;;;;4955337;29;20531;-49
2023/12/20 10:31:33;;;;;;;49.60;36.45;;;12.00;96.00;;;;;;4955051;29;20060;-47
2023/12/20 10:34:00;;;;;;;45.40;35.38;;;11.90;95.80;;;;;;4955147;29;20028;-50
2023/12/20 10:36:27;;;;;;;47.20;35.65;;;11.70;95.70;;;;;;4954854;29;20027;-51
2023/12/20 10:38:55;;;;;;;41.53;34.65;;;11.20;95.60;;;;;;4954492;29;20066;-49
2023/12/20 10:41:31;;;;;;;58.58;39.13;;;10.90;96.00;;;;;;4937583;29;20059;-48
2023/12/20 10:44:01;;;;;;;47.00;38.38;;;10.80;97.30;;;;;;4918621;29;20566;-51
2023/12/20 10:46:31;;;;;;;47.05;38.28;;;10.40;98.40;;;;;;4952086;29;20069;-49
2023/12/20 10:48:57;;;;;;;52.33;38.67;;;10.20;99.30;;;;;;4954961;29;20042;-50
2023/12/20 10:51:26;;;;;;;52.40;40.45;;;10.10;99.90;;;;;;4954193;29;20019;-49
2023/12/20 10:53:53;;;;;;;59.50;48.15;;;10.10;99.90;;;;;;4954931;29;20403;-51
2023/12/20 10:56:21;;;;;;;56.72;47.72;;;10.00;99.90;;;;;;4954624;29;20038;-48
2023/12/20 10:58:48;;;;;;;49.92;41.80;;;10.10;99.90;;;;;;4953689;29;20050;-48
2023/12/20 11:01:15;;;;;;;58.55;43.35;;;10.20;99.90;;;;;;4949919;28;20051;-48
2023/12/20 11:03:50;;;;;;;54.00;40.20;;;10.30;99.90;;;;;;4953899;28;20065;-50
2023/12/20 11:06:29;;;;;;;48.47;39.28;;;10.40;99.90;;;;;;4935117;29;20487;-49
2023/12/20 11:09:27;;;;;;;53.65;41.58;;;10.60;99.90;;;;;;4938246;29;20035;-50
2023/12/20 11:12:13;;;;;;;52.95;42.42;;;11.30;99.90;;;;;;4954340;29;20067;-50
2023/12/20 11:14:50;;;;;;;56.47;39.92;;;12.30;99.90;;;;;;4953702;29;20035;-50
2023/12/20 11:17:17;;;;;;;54.33;42.28;;;12.70;98.80;;;;;;4949868;29;20442;-48
2023/12/20 11:19:55;;;;;;;50.92;39.42;;;12.70;97.50;;;;;;4953802;29;20086;-49
2023/12/20 11:22:21;;;;;;;57.38;43.47;;;12.40;96.70;;;;;;4951554;29;20063;-50
2023/12/20 11:24:50;;;;;;;64.40;49.20;;;12.50;97.90;;;;;;4953876;29;20075;-50
2023/12/20 11:27:16;;;;;;;67.85;48.90;;;12.70;97.60;;;;;;4951098;29;20031;-50
2023/12/20 11:29:50;;;;;;;61.25;47.08;;;12.90;97.30;;;;;;4953364;29;20066;-50
2023/12/20 11:32:26;;;;;;;78.03;57.10;;;13.00;99.90;;;;;;4932404;29;20065;-49
2023/12/20 11:34:55;;;;;;;69.13;51.95;;;12.70;97.00;;;;;;4931581;29;20043;-50
2023/12/20 11:37:22;;;;;;;70.45;52.75;;;;;;;;;;4900392;29;20070;-49
2023/12/20 11:40:03;;;;;;;68.63;53.58;;;12.00;99.90;;;;;;4932267;29;20038;-51
2023/12/20 11:42:34;;;;;;;73.53;55.25;;;11.60;97.90;;;;;;4932386;29;20047;-49
2023/12/20 11:45:03;;;;;;;73.75;58.05;;;11.20;98.90;;;;;;4932254;29;20414;-50
2023/12/20 11:47:31;;;;;;;71.45;54.72;;;10.80;99.90;;;;;;4932372;29;20044;-50
2023/12/20 11:49:57;;;;;;;69.80;54.45;;;10.60;99.90;;;;;;4932164;29;20072;-48
2023/12/20 11:52:22;;;;;;;69.40;55.13;;;10.20;99.90;;;;;;4932253;29;20058;-50
2023/12/20 11:54:48;;;;;;;74.32;55.08;;;10.10;99.90;;;;;;4932068;29;20040;-49
2023/12/20 11:57:14;;;;;;;74.88;54.63;;;10.00;99.90;;;;;;4932215;29;20039;-48
2023/12/20 11:59:40;;;;;;;71.85;52.55;;;9.90;99.90;;;;;;4931905;29;20055;-50
2023/12/20 12:02:06;;;;;;;79.60;58.30;;;;;;;;;;4933131;29;20032;-50
2023/12/20 12:04:32;;;;;;;77.55;58.25;;;9.40;99.90;;;;;;4953777;29;20059;-48
2023/12/20 12:06:58;;;;;;;70.50;49.42;;;8.80;99.90;;;;;;4936503;29;20533;-49
2023/12/20 12:09:23;;;;;;;86.88;63.75;;;9.30;99.90;;;;;;4904118;29;20066;-49
2023/12/20 12:11:49;;;;;;;83.82;63.08;;;9.40;99.90;;;;;;4953326;29;20032;-48
2023/12/20 12:14:15;;;;;;;94.35;66.68;;;9.30;99.90;;;;;;4881585;29;20539;-47
2023/12/20 12:16:43;;;;;;;92.35;65.82;;;9.30;99.90;;;;;;4913149;29;20037;-48
2023/12/20 12:19:24;;;;;;;80.32;61.47;;;9.30;99.90;;;;;;4913099;29;20048;-51
2023/12/20 12:22:19;;;;;;;85.72;63.40;;;9.20;99.90;;;;;;4913034;29;20103;-50
2023/12/20 12:24:46;;;;;;;84.65;63.15;;;;;;;;;;4903432;29;20045;-49
2023/12/20 12:27:13;;;;;;;89.50;66.53;;;;;;;;;;4903011;29;20054;-50
2023/12/20 12:29:39;;;;;;;96.72;68.72;;;9.90;99.90;;;;;;4904050;29;20555;-51
2023/12/20 12:32:07;;;;;;;91.45;66.63;;;9.20;99.90;;;;;;4894128;29;20040;-50
2023/12/20 12:34:34;;;;;;;93.25;69.78;;;;;;;;;;4902388;29;20041;-48
2023/12/20 12:37:00;;;;;;;93.00;69.10;;;;;;;;;;4903825;29;20064;-51
2023/12/20 12:39:26;;;;;;;89.03;63.28;;;9.20;99.90;;;;;;4903693;29;20568;-48
2023/12/20 12:41:53;;;;;;;85.45;64.00;;;9.30;99.90;;;;;;4903643;29;20136;-49
2023/12/20 12:44:19;;;;;;;84.95;65.55;;;9.20;99.90;;;;;;4911882;29;20484;-48
2023/12/20 12:46:53;;;;;;;85.55;61.80;;;9.30;99.90;;;;;;4946660;28;20122;-50